createdAt,value
2017-11-11T08:17:54.133Z,5.20
2017-11-11T08:20:21.745Z,5.90
2017-11-11T08:22:48.204Z,5.90
2017-11-11T08:25:14.757Z,6.30
2017-11-11T08:27:41.203Z,6.80
2017-11-11T08:30:07.641Z,7.10
2017-11-11T08:32:34.041Z,7.20
2017-11-11T08:35:01.946Z,7.00
2017-11-11T08:37:28.373Z,7.00
2017-11-11T08:39:55.544Z,7.20
2017-11-11T08:42:21.921Z,7.20
2017-11-11T08:44:49.050Z,7.30
2017-11-11T08:47:16.316Z,7.30
2017-11-11T08:49:42.711Z,7.50
2017-11-11T08:52:09.089Z,7.70
2017-11-11T08:54:36.205Z,7.80
2017-11-11T08:57:02.601Z,7.80
2017-11-11T08:59:29.136Z,7.80
2017-11-11T09:01:55.528Z,7.60
2017-11-11T09:04:21.907Z,7.50
2017-11-11T09:06:48.297Z,7.70
2017-11-11T09:09:20.729Z,7.50
2017-11-11T09:11:47.151Z,7.40
2017-11-11T09:14:13.530Z,7.60
2017-11-11T09:16:40.700Z,7.60
2017-11-11T09:19:07.840Z,7.70
2017-11-11T09:21:34.252Z,7.70
2017-11-11T09:24:00.609Z,7.40
2017-11-11T09:26:27.808Z,7.10
2017-11-11T09:28:54.240Z,7.10
2017-11-11T09:31:20.678Z,7.10
2017-11-11T09:33:47.083Z,7.10
2017-11-11T09:36:13.470Z,7.30
2017-11-11T09:38:39.856Z,7.40
2017-11-11T09:41:06.528Z,7.70
2017-11-11T09:43:32.891Z,7.90
2017-11-11T09:46:00.028Z,7.40
2017-11-11T09:48:26.447Z,7.40
2017-11-11T09:50:52.840Z,7.40
2017-11-11T09:53:19.280Z,7.50
2017-11-11T09:55:45.720Z,7.70
2017-11-11T09:58:12.158Z,7.60
2017-11-11T10:00:38.594Z,7.60
2017-11-11T10:03:04.995Z,7.80
2017-11-11T10:05:31.389Z,7.90
2017-11-11T10:07:57.862Z,7.50
2017-11-11T10:10:24.261Z,7.20
2017-11-11T10:12:52.165Z,6.80
2017-11-11T10:15:18.561Z,6.80
2017-11-11T10:17:45.690Z,6.90
2017-11-11T10:20:12.197Z,6.90
2017-11-11T10:22:38.633Z,6.80
2017-11-11T10:25:05.115Z,6.80
2017-11-11T10:27:32.292Z,6.80
2017-11-11T10:29:58.745Z,6.80
2017-11-11T10:32:25.185Z,6.90
2017-11-11T10:34:51.616Z,6.90
2017-11-11T10:37:18.035Z,6.90
2017-11-11T10:39:44.484Z,7.20
2017-11-11T10:42:10.896Z,7.30
2017-11-11T10:44:37.317Z,7.20
2017-11-11T10:47:03.749Z,7.20
2017-11-11T10:49:30.868Z,7.30
2017-11-11T10:51:57.255Z,7.30
2017-11-11T10:54:23.672Z,7.60
2017-11-11T10:56:50.052Z,7.90
2017-11-11T10:59:16.443Z,8.10
2017-11-11T11:01:42.830Z,8.30
2017-11-11T11:04:10.005Z,8.00
2017-11-11T11:06:37.133Z,7.90
2017-11-11T11:09:03.595Z,7.80
2017-11-11T11:11:30.020Z,8.00
2017-11-11T11:13:57.173Z,8.10
2017-11-11T11:16:23.576Z,8.10
2017-11-11T11:18:51.453Z,7.90
2017-11-11T11:21:18.584Z,7.80
2017-11-11T11:23:45.014Z,7.80
2017-11-11T11:26:11.461Z,7.70
2017-11-11T11:28:39.326Z,8.10
2017-11-11T11:31:07.177Z,8.30
2017-11-11T11:33:35.120Z,8.50
2017-11-11T11:36:01.509Z,8.50
2017-11-11T11:38:28.621Z,8.60
2017-11-11T11:40:55.070Z,8.60
2017-11-11T11:43:21.472Z,8.30
2017-11-11T11:45:47.933Z,8.10
2017-11-11T11:48:15.813Z,8.30
2017-11-11T11:50:42.184Z,8.40
2017-11-11T11:53:08.605Z,8.50
2017-11-11T11:55:34.974Z,8.30
2017-11-11T11:58:01.440Z,8.10
2017-11-11T12:00:27.812Z,8.10
2017-11-11T12:02:54.187Z,8.20
2017-11-11T12:05:22.086Z,8.20
2017-11-11T12:07:48.500Z,8.20
2017-11-11T12:10:14.873Z,8.30
2017-11-11T12:12:41.271Z,8.30
2017-11-11T12:15:08.412Z,8.20
2017-11-11T12:17:36.279Z,8.00
2017-11-11T12:20:04.227Z,8.00
2017-11-11T12:22:30.637Z,8.00
2017-11-11T12:24:57.024Z,8.10
2017-11-11T12:27:24.145Z,7.90
2017-11-11T12:29:50.584Z,7.90
2017-11-11T12:32:17.009Z,8.00
2017-11-11T12:34:43.418Z,8.10
2017-11-11T12:37:09.814Z,8.10
2017-11-11T12:39:36.956Z,8.30
2017-11-11T12:42:04.168Z,8.20
2017-11-11T12:44:30.592Z,8.20
2017-11-11T12:46:56.982Z,8.40
2017-11-11T12:49:24.165Z,9.10
2017-11-11T12:51:50.578Z,9.10
2017-11-11T12:54:17.011Z,8.90
2017-11-11T12:56:43.467Z,8.60
2017-11-11T12:59:09.906Z,8.50
2017-11-11T13:01:36.305Z,8.30
2017-11-11T13:04:02.768Z,8.10
2017-11-11T13:06:29.150Z,8.10
2017-11-11T13:08:55.553Z,8.10
2017-11-11T13:11:21.970Z,8.30
2017-11-11T13:13:48.368Z,8.30
2017-11-11T13:16:14.765Z,8.50
2017-11-11T13:18:41.943Z,8.30
2017-11-11T13:21:09.113Z,8.10
2017-11-11T13:23:35.548Z,8.10
2017-11-11T13:26:01.991Z,8.10
2017-11-11T13:28:28.414Z,8.10
2017-11-11T13:30:54.850Z,8.00
2017-11-11T13:33:21.275Z,7.80
2017-11-11T13:35:47.699Z,7.80
2017-11-11T13:38:14.816Z,7.50
2017-11-11T13:40:41.994Z,7.70
2017-11-11T13:43:08.392Z,7.70
2017-11-11T13:45:34.863Z,7.90
2017-11-11T13:48:01.323Z,7.70
2017-11-11T13:50:27.852Z,7.80
2017-11-11T13:52:54.208Z,8.00
2017-11-11T13:55:20.625Z,8.10
2017-11-11T13:57:47.186Z,7.90
2017-11-11T14:00:13.676Z,7.90
2017-11-11T14:02:40.889Z,8.00
2017-11-11T14:05:07.292Z,8.00
2017-11-11T14:07:34.573Z,8.00
2017-11-11T14:10:00.981Z,7.70
2017-11-11T14:12:27.407Z,7.70
2017-11-11T14:14:53.806Z,7.80
2017-11-11T14:17:20.264Z,7.80
2017-11-11T14:19:46.657Z,7.90
2017-11-11T14:22:13.802Z,7.90
2017-11-11T14:24:40.930Z,7.80
2017-11-11T14:27:07.328Z,7.80
2017-11-11T14:29:34.381Z,7.80
2017-11-11T14:32:01.616Z,8.00
2017-11-11T14:34:28.100Z,8.00
2017-11-11T14:36:54.485Z,7.60
2017-11-11T14:39:20.890Z,7.60
2017-11-11T14:41:47.298Z,7.80
2017-11-11T14:44:14.496Z,7.70
2017-11-11T14:46:40.901Z,7.70
2017-11-11T14:49:07.305Z,7.70
2017-11-11T14:51:34.699Z,7.80
2017-11-11T14:54:01.161Z,7.80
2017-11-11T14:56:27.590Z,7.80
2017-11-11T14:58:53.996Z,7.70
2017-11-11T15:01:20.481Z,7.60
2017-11-11T15:03:46.895Z,7.60
2017-11-11T15:06:13.300Z,7.80
2017-11-11T15:08:39.707Z,7.80
2017-11-11T15:11:06.117Z,7.90
2017-11-11T15:13:32.533Z,7.80
2017-11-11T15:15:58.950Z,7.90
2017-11-11T15:18:25.366Z,8.00
2017-11-11T15:20:51.814Z,8.00
2017-11-11T15:23:18.221Z,7.90
2017-11-11T15:25:44.620Z,7.70
2017-11-11T15:28:11.063Z,7.70
2017-11-11T15:30:38.238Z,7.50
2017-11-11T15:33:04.639Z,7.40
2017-11-11T15:35:31.047Z,7.50
2017-11-11T15:37:57.462Z,7.50
2017-11-11T15:40:23.863Z,7.40
2017-11-11T15:42:50.975Z,7.30
2017-11-11T15:45:18.833Z,7.40
2017-11-11T15:47:45.280Z,7.40
2017-11-11T15:50:13.190Z,7.40
2017-11-11T15:52:39.874Z,7.40
2017-11-11T15:55:06.313Z,7.40
2017-11-11T15:57:34.262Z,7.30
2017-11-11T16:00:00.652Z,7.20
2017-11-11T16:02:27.181Z,7.40
2017-11-11T16:04:54.325Z,7.30
2017-11-11T16:07:21.460Z,7.20
2017-11-11T16:09:48.588Z,7.30
2017-11-11T16:12:14.936Z,7.30
2017-11-11T16:14:41.333Z,7.40
2017-11-11T16:17:07.755Z,7.50
2017-11-11T16:19:34.152Z,7.30
2017-11-11T16:22:01.333Z,7.20
2017-11-11T16:24:27.718Z,7.20
2017-11-11T16:26:54.150Z,7.10
2017-11-11T16:29:20.569Z,7.00
2017-11-11T16:31:47.005Z,7.00
2017-11-11T16:34:13.378Z,7.00
2017-11-11T16:36:39.769Z,6.90
2017-11-11T16:39:06.164Z,6.90
2017-11-11T16:41:32.544Z,6.90
2017-11-11T16:43:59.659Z,6.80
2017-11-11T16:46:26.081Z,6.80
2017-11-11T16:48:52.485Z,6.70
2017-11-11T16:51:18.903Z,6.70
2017-11-11T16:53:46.034Z,6.80
2017-11-11T16:56:12.463Z,6.70
2017-11-11T16:58:38.854Z,7.00
2017-11-11T17:01:05.268Z,7.10
2017-11-11T17:03:31.698Z,7.00
2017-11-11T17:05:58.820Z,6.90
2017-11-11T17:08:25.955Z,7.00
2017-11-11T17:10:53.828Z,6.90
2017-11-11T17:13:20.193Z,6.90
2017-11-11T17:15:46.564Z,6.70
2017-11-11T17:18:12.956Z,6.70
2017-11-11T17:20:39.354Z,6.70
2017-11-11T17:23:05.762Z,6.80
2017-11-11T17:25:32.164Z,6.80
2017-11-11T17:27:58.549Z,6.80
2017-11-11T17:30:26.424Z,6.80
2017-11-11T17:32:54.302Z,6.80
2017-11-11T17:35:21.445Z,6.80
2017-11-11T17:37:48.609Z,6.90
2017-11-11T17:40:15.749Z,6.90
2017-11-11T17:42:42.928Z,6.90
2017-11-11T17:45:09.312Z,6.90
2017-11-11T17:47:35.799Z,7.00
2017-11-11T17:50:02.220Z,6.80
2017-11-11T17:52:28.652Z,6.90
2017-11-11T17:54:55.093Z,6.80
2017-11-11T17:57:21.525Z,6.90
2017-11-11T17:59:47.912Z,6.90
2017-11-11T18:02:15.771Z,6.90
2017-11-11T18:04:43.627Z,6.90
2017-11-11T18:07:10.122Z,6.90
2017-11-11T18:09:36.527Z,6.80
2017-11-11T18:12:03.688Z,6.70
2017-11-11T18:14:30.822Z,6.70
2017-11-11T18:16:57.196Z,6.70
2017-11-11T18:19:23.635Z,6.70
2017-11-11T18:21:50.015Z,6.80
2017-11-11T18:24:17.146Z,6.70
2017-11-11T18:26:44.293Z,6.80
2017-11-11T18:29:10.757Z,6.80
2017-11-11T18:31:37.888Z,6.90
2017-11-11T18:34:05.059Z,6.80
2017-11-11T18:36:31.471Z,6.80
2017-11-11T18:38:57.923Z,6.90
2017-11-11T18:41:25.056Z,6.80
2017-11-11T18:43:51.448Z,6.80
2017-11-11T18:46:17.832Z,6.90
2017-11-11T18:48:44.995Z,6.70
2017-11-11T18:51:11.404Z,6.70
2017-11-11T18:53:37.835Z,6.80
2017-11-11T18:56:05.036Z,6.70
2017-11-11T18:58:31.420Z,6.70
2017-11-11T19:00:58.769Z,6.80
2017-11-11T19:03:25.189Z,6.80
2017-11-11T19:05:53.052Z,6.80
2017-11-11T19:08:19.466Z,6.80
2017-11-11T19:10:45.968Z,6.80
2017-11-11T19:13:12.370Z,7.00
2017-11-11T19:15:39.518Z,7.00
2017-11-11T19:18:05.923Z,7.00
2017-11-11T19:20:32.485Z,7.10
2017-11-11T19:22:58.864Z,6.70
2017-11-11T19:25:25.252Z,6.60
2017-11-11T19:27:53.126Z,6.70
2017-11-11T19:30:20.267Z,6.60
2017-11-11T19:32:48.263Z,6.60
2017-11-11T19:35:15.413Z,6.50
2017-11-11T19:37:42.571Z,6.40
2017-11-11T19:40:08.961Z,6.30
2017-11-11T19:42:35.364Z,6.40
2017-11-11T19:45:01.786Z,6.70
2017-11-11T19:47:28.225Z,6.80
2017-11-11T19:49:54.656Z,6.80
2017-11-11T19:52:21.033Z,6.80
2017-11-11T19:54:48.217Z,6.80
2017-11-11T19:57:14.645Z,6.80
2017-11-11T19:59:41.080Z,6.90
2017-11-11T20:02:07.482Z,6.80
2017-11-11T20:04:35.345Z,6.50
2017-11-11T20:07:03.197Z,6.70
2017-11-11T20:09:29.577Z,6.70
2017-11-11T20:11:56.021Z,6.90
2017-11-11T20:14:22.445Z,6.80
2017-11-11T20:16:48.842Z,7.00
2017-11-11T20:19:16.004Z,7.40
2017-11-11T20:21:43.141Z,7.40
2017-11-11T20:24:09.524Z,7.40
2017-11-11T20:26:35.913Z,7.20
2017-11-11T20:29:03.159Z,7.60
2017-11-11T20:31:29.580Z,7.60
2017-11-11T20:33:56.021Z,7.60
2017-11-11T20:36:22.440Z,7.60
2017-11-11T20:38:48.852Z,7.40
2017-11-11T20:41:16.017Z,7.40
2017-11-11T20:43:42.440Z,7.40
2017-11-11T20:46:08.813Z,7.40
2017-11-11T20:48:35.954Z,7.70
2017-11-11T20:51:03.165Z,7.40
2017-11-11T20:53:29.550Z,7.40
2017-11-11T20:55:56.748Z,7.20
2017-11-11T20:58:23.155Z,7.10
2017-11-11T21:00:49.557Z,7.10
2017-11-11T21:03:16.673Z,7.30
2017-11-11T21:05:43.065Z,7.20
2017-11-11T21:08:09.493Z,7.10
2017-11-11T21:10:36.612Z,7.10
2017-11-11T21:13:03.774Z,7.30
2017-11-11T21:15:30.945Z,7.60
2017-11-11T21:17:57.333Z,7.60
2017-11-11T21:20:23.776Z,7.80
2017-11-11T21:22:51.000Z,8.10
2017-11-11T21:25:17.445Z,8.00
2017-11-11T21:27:43.908Z,8.20
2017-11-11T21:30:11.113Z,8.30
2017-11-11T21:32:37.518Z,8.30
2017-11-11T21:35:03.909Z,8.30
2017-11-11T21:37:30.830Z,8.40
2017-11-11T21:39:57.261Z,8.40
2017-11-11T21:42:23.663Z,8.40
2017-11-11T21:44:50.349Z,8.30
2017-11-11T21:47:18.286Z,8.30
2017-11-11T21:49:44.712Z,8.30
2017-11-11T21:52:11.119Z,8.40
2017-11-11T21:54:38.255Z,8.30
2017-11-11T21:57:05.395Z,8.30
2017-11-11T21:59:31.777Z,8.30
2017-11-11T22:01:58.164Z,8.20
2017-11-11T22:04:25.289Z,8.00
2017-11-11T22:06:51.725Z,8.00
2017-11-11T22:09:18.138Z,8.20
2017-11-11T22:11:44.533Z,8.20
2017-11-11T22:14:10.929Z,8.30
2017-11-11T22:16:38.803Z,8.00
2017-11-11T22:19:05.247Z,8.00
2017-11-11T22:21:32.442Z,8.00
2017-11-11T22:23:58.873Z,8.00
2017-11-11T22:26:25.299Z,8.10
2017-11-11T22:28:51.716Z,8.20
2017-11-11T22:31:18.095Z,8.30
2017-11-11T22:33:44.516Z,8.30
2017-11-11T22:36:10.985Z,8.30
2017-11-11T22:38:38.132Z,8.30
2017-11-11T22:41:04.581Z,8.30
2017-11-11T22:43:31.720Z,8.40
2017-11-11T22:45:58.852Z,8.40
2017-11-11T22:48:25.248Z,8.40
2017-11-11T22:50:51.629Z,8.30
2017-11-11T22:53:18.776Z,8.30
2017-11-11T22:55:45.921Z,8.30
2017-11-11T22:58:13.055Z,8.20
2017-11-11T23:00:39.506Z,8.20
2017-11-11T23:03:06.657Z,8.20
2017-11-11T23:05:33.080Z,8.20
2017-11-11T23:07:59.480Z,8.30
2017-11-11T23:10:25.861Z,8.20
2017-11-11T23:12:52.989Z,8.40
2017-11-11T23:15:20.877Z,8.40
2017-11-11T23:17:47.258Z,8.40
2017-11-11T23:20:13.923Z,8.30
2017-11-11T23:22:40.337Z,8.30
2017-11-11T23:25:06.721Z,8.40
2017-11-11T23:27:33.836Z,8.60
2017-11-11T23:30:00.248Z,8.60
2017-11-11T23:32:26.632Z,8.60
2017-11-11T23:34:53.799Z,8.70
2017-11-11T23:37:20.200Z,8.70
2017-11-11T23:39:46.584Z,8.80
2017-11-11T23:42:13.710Z,8.80
2017-11-11T23:44:40.083Z,8.80
2017-11-11T23:47:06.455Z,8.60
2017-11-11T23:49:33.652Z,8.40
2017-11-11T23:52:00.024Z,8.50
2017-11-11T23:54:26.435Z,8.30
2017-11-11T23:56:52.824Z,8.30
2017-11-11T23:59:19.268Z,8.30
